sensor_id;sensor_type;location;lat;lon;timestamp;P1;P2;P0
59546;PMS5003;45368;55.002;-1.592;2022-09-09T00:02:14;10;9;
59546;PMS5003;45368;55.002;-1.592;2022-09-09T00:04:46;11;9;
59546;PMS5003;45368;55.002;-1.592;2022-09-09T00:07:25;10;10;
59546;PMS5003;45368;55.002;-1.592;2022-09-09T00:10:09;9;9;
59546;PMS5003;45368;55.002;-1.592;2022-09-09T00:12:47;9;9;
59546;PMS5003;45368;55.002;-1.592;2022-09-09T00:15:22;8;8;
59546;PMS5003;45368;55.002;-1.592;2022-09-09T00:17:52;9;9;
59546;PMS5003;45368;55.002;-1.592;2022-09-09T00:20:26;11;10;
59546;PMS5003;45368;55.002;-1.592;2022-09-09T00:23:03;10;10;
59546;PMS5003;45368;55.002;-1.592;2022-09-09T00:25:40;8;8;
59546;PMS5003;45368;55.002;-1.592;2022-09-09T00:28:17;7;7;
59546;PMS5003;45368;55.002;-1.592;2022-09-09T00:30:46;10;7;
59546;PMS5003;45368;55.002;-1.592;2022-09-09T00:33:15;10;9;
59546;PMS5003;45368;55.002;-1.592;2022-09-09T00:35:47;8;7;
59546;PMS5003;45368;55.002;-1.592;2022-09-09T00:38:17;5;5;
59546;PMS5003;45368;55.002;-1.592;2022-09-09T00:40:58;9;8;
59546;PMS5003;45368;55.002;-1.592;2022-09-09T00:43:32;8;8;
59546;PMS5003;45368;55.002;-1.592;2022-09-09T00:46:13;6;5;
59546;PMS5003;45368;55.002;-1.592;2022-09-09T00:48:53;12;11;
59546;PMS5003;45368;55.002;-1.592;2022-09-09T00:51:29;12;10;
59546;PMS5003;45368;55.002;-1.592;2022-09-09T00:54:11;9;8;
59546;PMS5003;45368;55.002;-1.592;2022-09-09T00:56:51;9;8;
59546;PMS5003;45368;55.002;-1.592;2022-09-09T00:59:35;9;8;
59546;PMS5003;45368;55.002;-1.592;2022-09-09T01:02:13;9;9;
59546;PMS5003;45368;55.002;-1.592;2022-09-09T01:04:48;6;6;
59546;PMS5003;45368;55.002;-1.592;2022-09-09T01:07:16;10;10;
59546;PMS5003;45368;55.002;-1.592;2022-09-09T01:09:51;10;8;
59546;PMS5003;45368;55.002;-1.592;2022-09-09T01:12:25;6;5;
59546;PMS5003;45368;55.002;-1.592;2022-09-09T01:14:58;7;7;
59546;PMS5003;45368;55.002;-1.592;2022-09-09T01:17:36;8;6;
59546;PMS5003;45368;55.002;-1.592;2022-09-09T01:20:14;5;4;
59546;PMS5003;45368;55.002;-1.592;2022-09-09T01:22:47;6;5;
59546;PMS5003;45368;55.002;-1.592;2022-09-09T01:25:28;10;8;
59546;PMS5003;45368;55.002;-1.592;2022-09-09T01:28:29;5;5;
59546;PMS5003;45368;55.002;-1.592;2022-09-09T01:30:57;6;5;
59546;PMS5003;45368;55.002;-1.592;2022-09-09T01:33:26;8;7;
59546;PMS5003;45368;55.002;-1.592;2022-09-09T01:35:55;8;8;
59546;PMS5003;45368;55.002;-1.592;2022-09-09T01:38:27;8;7;
59546;PMS5003;45368;55.002;-1.592;2022-09-09T01:40:57;6;6;
59546;PMS5003;45368;55.002;-1.592;2022-09-09T01:43:25;8;8;
59546;PMS5003;45368;55.002;-1.592;2022-09-09T01:45:54;7;7;
59546;PMS5003;45368;55.002;-1.592;2022-09-09T01:48:22;10;9;
59546;PMS5003;45368;55.002;-1.592;2022-09-09T01:50:51;9;9;
59546;PMS5003;45368;55.002;-1.592;2022-09-09T01:53:19;8;7;
59546;PMS5003;45368;55.002;-1.592;2022-09-09T01:55:49;7;6;
59546;PMS5003;45368;55.002;-1.592;2022-09-09T01:58:31;9;8;
59546;PMS5003;45368;55.002;-1.592;2022-09-09T02:01:09;8;8;
59546;PMS5003;45368;55.002;-1.592;2022-09-09T02:03:44;9;8;
59546;PMS5003;45368;55.002;-1.592;2022-09-09T02:06:21;8;8;
59546;PMS5003;45368;55.002;-1.592;2022-09-09T02:08:55;5;5;
59546;PMS5003;45368;55.002;-1.592;2022-09-09T02:11:24;7;7;
59546;PMS5003;45368;55.002;-1.592;2022-09-09T02:13:54;7;6;
59546;PMS5003;45368;55.002;-1.592;2022-09-09T02:16:28;11;10;
59546;PMS5003;45368;55.002;-1.592;2022-09-09T02:19:01;6;6;
59546;PMS5003;45368;55.002;-1.592;2022-09-09T02:21:35;13;9;
59546;PMS5003;45368;55.002;-1.592;2022-09-09T02:24:04;7;7;
59546;PMS5003;45368;55.002;-1.592;2022-09-09T02:26:33;12;10;
59546;PMS5003;45368;55.002;-1.592;2022-09-09T02:29:04;7;6;
59546;PMS5003;45368;55.002;-1.592;2022-09-09T02:31:36;6;6;
59546;PMS5003;45368;55.002;-1.592;2022-09-09T02:34:05;6;5;
59546;PMS5003;45368;55.002;-1.592;2022-09-09T02:36:36;8;8;
59546;PMS5003;45368;55.002;-1.592;2022-09-09T02:39:05;7;7;
59546;PMS5003;45368;55.002;-1.592;2022-09-09T02:41:35;8;6;
59546;PMS5003;45368;55.002;-1.592;2022-09-09T02:44:05;8;6;
59546;PMS5003;45368;55.002;-1.592;2022-09-09T02:46:37;9;8;
59546;PMS5003;45368;55.002;-1.592;2022-09-09T02:49:18;8;7;
59546;PMS5003;45368;55.002;-1.592;2022-09-09T02:51:52;5;5;
59546;PMS5003;45368;55.002;-1.592;2022-09-09T02:54:24;8;7;
59546;PMS5003;45368;55.002;-1.592;2022-09-09T02:56:55;6;6;
59546;PMS5003;45368;55.002;-1.592;2022-09-09T02:59:24;7;5;
59546;PMS5003;45368;55.002;-1.592;2022-09-09T03:01:53;3;3;
59546;PMS5003;45368;55.002;-1.592;2022-09-09T03:04:20;3;3;
59546;PMS5003;45368;55.002;-1.592;2022-09-09T03:06:48;6;5;
59546;PMS5003;45368;55.002;-1.592;2022-09-09T03:09:15;4;4;
59546;PMS5003;45368;55.002;-1.592;2022-09-09T03:11:43;5;5;
59546;PMS5003;45368;55.002;-1.592;2022-09-09T03:14:10;4;4;
59546;PMS5003;45368;55.002;-1.592;2022-09-09T03:16:37;5;5;
59546;PMS5003;45368;55.002;-1.592;2022-09-09T03:19:04;5;5;
59546;PMS5003;45368;55.002;-1.592;2022-09-09T03:21:31;5;4;
59546;PMS5003;45368;55.002;-1.592;2022-09-09T03:23:58;5;5;
59546;PMS5003;45368;55.002;-1.592;2022-09-09T03:26:26;3;3;
59546;PMS5003;45368;55.002;-1.592;2022-09-09T03:28:52;4;4;
59546;PMS5003;45368;55.002;-1.592;2022-09-09T03:31:19;4;4;
59546;PMS5003;45368;55.002;-1.592;2022-09-09T03:33:47;3;3;
59546;PMS5003;45368;55.002;-1.592;2022-09-09T03:36:15;4;4;
59546;PMS5003;45368;55.002;-1.592;2022-09-09T03:38:42;5;4;
59546;PMS5003;45368;55.002;-1.592;2022-09-09T03:41:10;5;3;
59546;PMS5003;45368;55.002;-1.592;2022-09-09T03:43:37;2;2;
59546;PMS5003;45368;55.002;-1.592;2022-09-09T03:46:05;4;4;
59546;PMS5003;45368;55.002;-1.592;2022-09-09T03:48:33;5;4;
59546;PMS5003;45368;55.002;-1.592;2022-09-09T03:51:04;4;4;
59546;PMS5003;45368;55.002;-1.592;2022-09-09T03:53:31;5;4;
59546;PMS5003;45368;55.002;-1.592;2022-09-09T03:55:59;5;5;
59546;PMS5003;45368;55.002;-1.592;2022-09-09T03:58:27;4;3;
59546;PMS5003;45368;55.002;-1.592;2022-09-09T04:01:36;5;3;
59546;PMS5003;45368;55.002;-1.592;2022-09-09T04:04:03;3;2;
59546;PMS5003;45368;55.002;-1.592;2022-09-09T04:06:30;6;6;
59546;PMS5003;45368;55.002;-1.592;2022-09-09T04:08:57;7;5;
59546;PMS5003;45368;55.002;-1.592;2022-09-09T04:11:24;5;5;
59546;PMS5003;45368;55.002;-1.592;2022-09-09T04:13:51;5;4;
59546;PMS5003;45368;55.002;-1.592;2022-09-09T04:16:18;7;6;
59546;PMS5003;45368;55.002;-1.592;2022-09-09T04:18:46;3;3;
59546;PMS5003;45368;55.002;-1.592;2022-09-09T04:21:14;4;2;
59546;PMS5003;45368;55.002;-1.592;2022-09-09T04:23:41;2;2;
59546;PMS5003;45368;55.002;-1.592;2022-09-09T04:26:08;3;2;
59546;PMS5003;45368;55.002;-1.592;2022-09-09T04:28:36;4;2;
59546;PMS5003;45368;55.002;-1.592;2022-09-09T04:31:04;4;3;
59546;PMS5003;45368;55.002;-1.592;2022-09-09T04:33:32;6;4;
59546;PMS5003;45368;55.002;-1.592;2022-09-09T04:36:00;4;2;
59546;PMS5003;45368;55.002;-1.592;2022-09-09T04:38:28;3;2;
59546;PMS5003;45368;55.002;-1.592;2022-09-09T04:40:55;5;3;
59546;PMS5003;45368;55.002;-1.592;2022-09-09T04:43:23;4;3;
59546;PMS5003;45368;55.002;-1.592;2022-09-09T04:45:51;3;2;
59546;PMS5003;45368;55.002;-1.592;2022-09-09T04:48:18;3;1;
59546;PMS5003;45368;55.002;-1.592;2022-09-09T04:50:53;0;0;
59546;PMS5003;45368;55.002;-1.592;2022-09-09T04:53:21;5;2;
59546;PMS5003;45368;55.002;-1.592;2022-09-09T04:55:49;3;3;
59546;PMS5003;45368;55.002;-1.592;2022-09-09T04:58:16;5;5;
59546;PMS5003;45368;55.002;-1.592;2022-09-09T05:00:44;5;3;
59546;PMS5003;45368;55.002;-1.592;2022-09-09T05:03:11;3;3;
59546;PMS5003;45368;55.002;-1.592;2022-09-09T05:05:38;4;2;
59546;PMS5003;45368;55.002;-1.592;2022-09-09T05:08:07;3;2;
59546;PMS5003;45368;55.002;-1.592;2022-09-09T05:10:36;6;2;
59546;PMS5003;45368;55.002;-1.592;2022-09-09T05:13:05;2;2;
59546;PMS5003;45368;55.002;-1.592;2022-09-09T05:15:32;3;3;
59546;PMS5003;45368;55.002;-1.592;2022-09-09T05:17:59;4;3;
59546;PMS5003;45368;55.002;-1.592;2022-09-09T05:20:28;3;2;
59546;PMS5003;45368;55.002;-1.592;2022-09-09T05:22:55;8;5;
59546;PMS5003;45368;55.002;-1.592;2022-09-09T05:25:23;3;3;
59546;PMS5003;45368;55.002;-1.592;2022-09-09T05:27:50;2;2;
59546;PMS5003;45368;55.002;-1.592;2022-09-09T05:30:18;5;3;
59546;PMS5003;45368;55.002;-1.592;2022-09-09T05:32:45;4;2;
59546;PMS5003;45368;55.002;-1.592;2022-09-09T05:35:13;4;2;
59546;PMS5003;45368;55.002;-1.592;2022-09-09T05:37:41;3;2;
59546;PMS5003;45368;55.002;-1.592;2022-09-09T05:40:08;3;3;
59546;PMS5003;45368;55.002;-1.592;2022-09-09T05:42:35;4;2;
59546;PMS5003;45368;55.002;-1.592;2022-09-09T05:45:02;4;3;
59546;PMS5003;45368;55.002;-1.592;2022-09-09T05:47:29;4;1;
59546;PMS5003;45368;55.002;-1.592;2022-09-09T05:49:56;4;3;
59546;PMS5003;45368;55.002;-1.592;2022-09-09T05:52:24;2;1;
59546;PMS5003;45368;55.002;-1.592;2022-09-09T05:54:51;2;2;
59546;PMS5003;45368;55.002;-1.592;2022-09-09T05:57:19;2;2;
59546;PMS5003;45368;55.002;-1.592;2022-09-09T05:59:46;3;2;
59546;PMS5003;45368;55.002;-1.592;2022-09-09T06:02:13;3;2;
59546;PMS5003;45368;55.002;-1.592;2022-09-09T06:04:40;3;2;
59546;PMS5003;45368;55.002;-1.592;2022-09-09T06:07:08;5;1;
59546;PMS5003;45368;55.002;-1.592;2022-09-09T06:09:35;5;4;
59546;PMS5003;45368;55.002;-1.592;2022-09-09T06:12:02;2;1;
59546;PMS5003;45368;55.002;-1.592;2022-09-09T06:14:30;3;2;
59546;PMS5003;45368;55.002;-1.592;2022-09-09T06:16:57;5;5;
59546;PMS5003;45368;55.002;-1.592;2022-09-09T06:19:24;5;4;
59546;PMS5003;45368;55.002;-1.592;2022-09-09T06:21:52;3;1;
59546;PMS5003;45368;55.002;-1.592;2022-09-09T06:24:19;5;2;
59546;PMS5003;45368;55.002;-1.592;2022-09-09T06:26:47;4;3;
59546;PMS5003;45368;55.002;-1.592;2022-09-09T06:29:14;7;5;
59546;PMS5003;45368;55.002;-1.592;2022-09-09T06:31:41;4;3;
59546;PMS5003;45368;55.002;-1.592;2022-09-09T06:34:08;6;3;
59546;PMS5003;45368;55.002;-1.592;2022-09-09T06:36:36;6;4;
59546;PMS5003;45368;55.002;-1.592;2022-09-09T06:39:05;4;4;
59546;PMS5003;45368;55.002;-1.592;2022-09-09T06:41:33;3;3;
59546;PMS5003;45368;55.002;-1.592;2022-09-09T06:44:01;7;5;
59546;PMS5003;45368;55.002;-1.592;2022-09-09T06:46:29;2;2;
59546;PMS5003;45368;55.002;-1.592;2022-09-09T06:48:57;4;3;
59546;PMS5003;45368;55.002;-1.592;2022-09-09T06:51:25;4;2;
59546;PMS5003;45368;55.002;-1.592;2022-09-09T06:53:54;5;3;
59546;PMS5003;45368;55.002;-1.592;2022-09-09T06:56:23;3;3;
59546;PMS5003;45368;55.002;-1.592;2022-09-09T06:58:52;5;2;
59546;PMS5003;45368;55.002;-1.592;2022-09-09T07:01:21;4;2;
59546;PMS5003;45368;55.002;-1.592;2022-09-09T07:03:50;2;1;
59546;PMS5003;45368;55.002;-1.592;2022-09-09T07:06:20;3;3;
59546;PMS5003;45368;55.002;-1.592;2022-09-09T07:08:49;5;3;
59546;PMS5003;45368;55.002;-1.592;2022-09-09T07:11:17;4;3;
59546;PMS5003;45368;55.002;-1.592;2022-09-09T07:13:46;4;3;
59546;PMS5003;45368;55.002;-1.592;2022-09-09T07:16:14;5;2;
59546;PMS5003;45368;55.002;-1.592;2022-09-09T07:18:44;2;2;
59546;PMS5003;45368;55.002;-1.592;2022-09-09T07:21:12;9;3;
59546;PMS5003;45368;55.002;-1.592;2022-09-09T07:23:41;3;1;
59546;PMS5003;45368;55.002;-1.592;2022-09-09T07:26:09;3;2;
59546;PMS5003;45368;55.002;-1.592;2022-09-09T07:28:37;5;4;
59546;PMS5003;45368;55.002;-1.592;2022-09-09T07:31:04;4;3;
59546;PMS5003;45368;55.002;-1.592;2022-09-09T07:33:33;4;3;
59546;PMS5003;45368;55.002;-1.592;2022-09-09T07:36:04;4;3;
59546;PMS5003;45368;55.002;-1.592;2022-09-09T07:38:37;5;3;
59546;PMS5003;45368;55.002;-1.592;2022-09-09T07:41:05;4;2;
59546;PMS5003;45368;55.002;-1.592;2022-09-09T07:43:34;1;1;
59546;PMS5003;45368;55.002;-1.592;2022-09-09T07:46:01;4;3;
59546;PMS5003;45368;55.002;-1.592;2022-09-09T07:48:29;6;2;
59546;PMS5003;45368;55.002;-1.592;2022-09-09T07:51:04;2;2;
59546;PMS5003;45368;55.002;-1.592;2022-09-09T07:53:34;2;1;
59546;PMS5003;45368;55.002;-1.592;2022-09-09T07:56:03;3;2;
59546;PMS5003;45368;55.002;-1.592;2022-09-09T07:59:11;3;1;
59546;PMS5003;45368;55.002;-1.592;2022-09-09T08:01:38;4;2;
59546;PMS5003;45368;55.002;-1.592;2022-09-09T08:04:07;4;1;
59546;PMS5003;45368;55.002;-1.592;2022-09-09T08:06:37;4;2;
59546;PMS5003;45368;55.002;-1.592;2022-09-09T08:09:07;1;1;
59546;PMS5003;45368;55.002;-1.592;2022-09-09T08:11:35;4;2;
59546;PMS5003;45368;55.002;-1.592;2022-09-09T08:14:04;1;1;
59546;PMS5003;45368;55.002;-1.592;2022-09-09T08:16:33;0;0;
59546;PMS5003;45368;55.002;-1.592;2022-09-09T08:19:02;1;0;
59546;PMS5003;45368;55.002;-1.592;2022-09-09T08:21:31;1;1;
59546;PMS5003;45368;55.002;-1.592;2022-09-09T08:23:59;1;0;
59546;PMS5003;45368;55.002;-1.592;2022-09-09T08:26:28;2;1;
59546;PMS5003;45368;55.002;-1.592;2022-09-09T08:28:58;4;2;
59546;PMS5003;45368;55.002;-1.592;2022-09-09T08:31:27;3;2;
59546;PMS5003;45368;55.002;-1.592;2022-09-09T08:33:55;2;1;
59546;PMS5003;45368;55.002;-1.592;2022-09-09T08:36:24;2;2;
59546;PMS5003;45368;55.002;-1.592;2022-09-09T08:38:56;3;1;
59546;PMS5003;45368;55.002;-1.592;2022-09-09T08:41:36;1;1;
59546;PMS5003;45368;55.002;-1.592;2022-09-09T08:44:14;1;0;
59546;PMS5003;45368;55.002;-1.592;2022-09-09T08:46:51;3;0;
59546;PMS5003;45368;55.002;-1.592;2022-09-09T08:49:36;0;0;
59546;PMS5003;45368;55.002;-1.592;2022-09-09T08:52:22;1;1;
59546;PMS5003;45368;55.002;-1.592;2022-09-09T08:54:53;2;0;
59546;PMS5003;45368;55.002;-1.592;2022-09-09T08:57:28;1;0;
59546;PMS5003;45368;55.002;-1.592;2022-09-09T08:59:58;2;1;
59546;PMS5003;45368;55.002;-1.592;2022-09-09T09:02:28;0;0;
59546;PMS5003;45368;55.002;-1.592;2022-09-09T09:05:07;2;1;
59546;PMS5003;45368;55.002;-1.592;2022-09-09T09:07:49;1;1;
59546;PMS5003;45368;55.002;-1.592;2022-09-09T09:10:32;1;1;
59546;PMS5003;45368;55.002;-1.592;2022-09-09T09:13:12;0;0;
59546;PMS5003;45368;55.002;-1.592;2022-09-09T09:15:42;1;0;
59546;PMS5003;45368;55.002;-1.592;2022-09-09T09:18:13;0;0;
59546;PMS5003;45368;55.002;-1.592;2022-09-09T09:20:50;0;0;
59546;PMS5003;45368;55.002;-1.592;2022-09-09T09:23:24;1;0;
59546;PMS5003;45368;55.002;-1.592;2022-09-09T09:25:56;2;1;
59546;PMS5003;45368;55.002;-1.592;2022-09-09T09:28:27;1;0;
59546;PMS5003;45368;55.002;-1.592;2022-09-09T09:30:59;0;0;
59546;PMS5003;45368;55.002;-1.592;2022-09-09T09:33:31;3;2;
59546;PMS5003;45368;55.002;-1.592;2022-09-09T09:36:05;1;1;
59546;PMS5003;45368;55.002;-1.592;2022-09-09T09:38:33;1;0;
59546;PMS5003;45368;55.002;-1.592;2022-09-09T09:41:02;1;1;
59546;PMS5003;45368;55.002;-1.592;2022-09-09T09:43:30;2;0;
59546;PMS5003;45368;55.002;-1.592;2022-09-09T09:45:59;2;1;
59546;PMS5003;45368;55.002;-1.592;2022-09-09T09:48:27;3;2;
59546;PMS5003;45368;55.002;-1.592;2022-09-09T09:50:55;2;1;
59546;PMS5003;45368;55.002;-1.592;2022-09-09T09:53:26;1;0;
59546;PMS5003;45368;55.002;-1.592;2022-09-09T09:55:56;2;1;
59546;PMS5003;45368;55.002;-1.592;2022-09-09T09:58:27;2;1;
59546;PMS5003;45368;55.002;-1.592;2022-09-09T10:00:56;4;2;
59546;PMS5003;45368;55.002;-1.592;2022-09-09T10:03:25;4;3;
59546;PMS5003;45368;55.002;-1.592;2022-09-09T10:05:53;3;1;
59546;PMS5003;45368;55.002;-1.592;2022-09-09T10:08:21;1;0;
59546;PMS5003;45368;55.002;-1.592;2022-09-09T10:10:56;4;2;
59546;PMS5003;45368;55.002;-1.592;2022-09-09T10:13:47;5;1;
59546;PMS5003;45368;55.002;-1.592;2022-09-09T10:16:24;2;2;
59546;PMS5003;45368;55.002;-1.592;2022-09-09T10:19:02;0;0;
59546;PMS5003;45368;55.002;-1.592;2022-09-09T10:21:40;4;2;
59546;PMS5003;45368;55.002;-1.592;2022-09-09T10:24:39;4;2;
59546;PMS5003;45368;55.002;-1.592;2022-09-09T10:27:23;4;1;
59546;PMS5003;45368;55.002;-1.592;2022-09-09T10:30:01;3;2;
59546;PMS5003;45368;55.002;-1.592;2022-09-09T10:32:37;2;1;
59546;PMS5003;45368;55.002;-1.592;2022-09-09T10:35:10;2;1;
59546;PMS5003;45368;55.002;-1.592;2022-09-09T10:37:48;2;2;
59546;PMS5003;45368;55.002;-1.592;2022-09-09T10:40:30;4;2;
59546;PMS5003;45368;55.002;-1.592;2022-09-09T10:43:02;3;2;
59546;PMS5003;45368;55.002;-1.592;2022-09-09T10:45:41;3;1;
59546;PMS5003;45368;55.002;-1.592;2022-09-09T10:48:28;1;1;
59546;PMS5003;45368;55.002;-1.592;2022-09-09T10:51:08;4;1;
59546;PMS5003;45368;55.002;-1.592;2022-09-09T10:53:51;3;1;
59546;PMS5003;45368;55.002;-1.592;2022-09-09T10:56:28;3;1;
59546;PMS5003;45368;55.002;-1.592;2022-09-09T10:59:02;1;1;
59546;PMS5003;45368;55.002;-1.592;2022-09-09T11:01:34;2;1;
59546;PMS5003;45368;55.002;-1.592;2022-09-09T11:04:10;6;2;
59546;PMS5003;45368;55.002;-1.592;2022-09-09T11:06:44;1;1;
59546;PMS5003;45368;55.002;-1.592;2022-09-09T11:09:15;2;1;
59546;PMS5003;45368;55.002;-1.592;2022-09-09T11:11:48;3;2;
59546;PMS5003;45368;55.002;-1.592;2022-09-09T11:14:20;3;2;
59546;PMS5003;45368;55.002;-1.592;2022-09-09T11:16:53;1;1;
59546;PMS5003;45368;55.002;-1.592;2022-09-09T11:19:28;3;2;
59546;PMS5003;45368;55.002;-1.592;2022-09-09T11:22:01;2;1;
59546;PMS5003;45368;55.002;-1.592;2022-09-09T11:24:33;3;2;
59546;PMS5003;45368;55.002;-1.592;2022-09-09T11:27:07;3;2;
59546;PMS5003;45368;55.002;-1.592;2022-09-09T11:29:45;3;2;
59546;PMS5003;45368;55.002;-1.592;2022-09-09T11:32:34;7;5;
59546;PMS5003;45368;55.002;-1.592;2022-09-09T11:35:29;6;3;
59546;PMS5003;45368;55.002;-1.592;2022-09-09T11:38:06;3;2;
59546;PMS5003;45368;55.002;-1.592;2022-09-09T11:40:45;4;2;
59546;PMS5003;45368;55.002;-1.592;2022-09-09T11:43:13;3;2;
59546;PMS5003;45368;55.002;-1.592;2022-09-09T11:45:50;6;5;
59546;PMS5003;45368;55.002;-1.592;2022-09-09T11:48:31;5;3;
59546;PMS5003;45368;55.002;-1.592;2022-09-09T11:51:02;5;3;
59546;PMS5003;45368;55.002;-1.592;2022-09-09T11:53:31;4;3;
59546;PMS5003;45368;55.002;-1.592;2022-09-09T11:56:02;2;2;
59546;PMS5003;45368;55.002;-1.592;2022-09-09T11:58:34;2;1;
59546;PMS5003;45368;55.002;-1.592;2022-09-09T12:01:13;3;2;
59546;PMS5003;45368;55.002;-1.592;2022-09-09T12:03:43;3;1;
59546;PMS5003;45368;55.002;-1.592;2022-09-09T12:06:15;4;1;
59546;PMS5003;45368;55.002;-1.592;2022-09-09T12:08:46;3;2;
59546;PMS5003;45368;55.002;-1.592;2022-09-09T12:11:27;5;4;
59546;PMS5003;45368;55.002;-1.592;2022-09-09T12:13:56;5;3;
59546;PMS5003;45368;55.002;-1.592;2022-09-09T12:16:33;3;1;
59546;PMS5003;45368;55.002;-1.592;2022-09-09T12:19:05;3;2;
59546;PMS5003;45368;55.002;-1.592;2022-09-09T12:21:42;4;2;
59546;PMS5003;45368;55.002;-1.592;2022-09-09T12:24:16;5;4;
59546;PMS5003;45368;55.002;-1.592;2022-09-09T12:26:55;4;4;
59546;PMS5003;45368;55.002;-1.592;2022-09-09T12:29:32;3;2;
59546;PMS5003;45368;55.002;-1.592;2022-09-09T12:32:10;4;3;
59546;PMS5003;45368;55.002;-1.592;2022-09-09T12:34:39;5;3;
59546;PMS5003;45368;55.002;-1.592;2022-09-09T12:37:12;4;3;
59546;PMS5003;45368;55.002;-1.592;2022-09-09T12:39:45;5;3;
59546;PMS5003;45368;55.002;-1.592;2022-09-09T12:42:18;5;1;
59546;PMS5003;45368;55.002;-1.592;2022-09-09T12:44:54;5;1;
59546;PMS5003;45368;55.002;-1.592;2022-09-09T12:47:25;8;3;
59546;PMS5003;45368;55.002;-1.592;2022-09-09T12:49:58;12;9;
59546;PMS5003;45368;55.002;-1.592;2022-09-09T12:52:27;4;2;
59546;PMS5003;45368;55.002;-1.592;2022-09-09T12:54:57;5;4;
59546;PMS5003;45368;55.002;-1.592;2022-09-09T12:57:28;4;3;
59546;PMS5003;45368;55.002;-1.592;2022-09-09T13:00:07;6;4;
59546;PMS5003;45368;55.002;-1.592;2022-09-09T13:02:45;9;6;
59546;PMS5003;45368;55.002;-1.592;2022-09-09T13:05:16;3;3;
59546;PMS5003;45368;55.002;-1.592;2022-09-09T13:07:46;8;5;
59546;PMS5003;45368;55.002;-1.592;2022-09-09T13:10:14;4;3;
59546;PMS5003;45368;55.002;-1.592;2022-09-09T13:12:50;7;4;
59546;PMS5003;45368;55.002;-1.592;2022-09-09T13:15:19;4;2;
59546;PMS5003;45368;55.002;-1.592;2022-09-09T13:17:50;7;3;
59546;PMS5003;45368;55.002;-1.592;2022-09-09T13:20:19;8;5;
59546;PMS5003;45368;55.002;-1.592;2022-09-09T13:22:47;10;5;
59546;PMS5003;45368;55.002;-1.592;2022-09-09T13:25:20;3;3;
59546;PMS5003;45368;55.002;-1.592;2022-09-09T13:27:53;6;5;
59546;PMS5003;45368;55.002;-1.592;2022-09-09T13:30:24;6;6;
59546;PMS5003;45368;55.002;-1.592;2022-09-09T13:33:29;8;4;
59546;PMS5003;45368;55.002;-1.592;2022-09-09T13:36:00;5;3;
59546;PMS5003;45368;55.002;-1.592;2022-09-09T13:38:30;5;2;
59546;PMS5003;45368;55.002;-1.592;2022-09-09T13:41:00;3;1;
59546;PMS5003;45368;55.002;-1.592;2022-09-09T13:43:31;7;4;
59546;PMS5003;45368;55.002;-1.592;2022-09-09T13:46:02;6;3;
59546;PMS5003;45368;55.002;-1.592;2022-09-09T13:48:30;4;2;
59546;PMS5003;45368;55.002;-1.592;2022-09-09T13:51:00;6;3;
59546;PMS5003;45368;55.002;-1.592;2022-09-09T13:53:28;3;2;
59546;PMS5003;45368;55.002;-1.592;2022-09-09T13:55:56;6;3;
59546;PMS5003;45368;55.002;-1.592;2022-09-09T13:58:25;5;5;
59546;PMS5003;45368;55.002;-1.592;2022-09-09T14:00:53;5;2;
59546;PMS5003;45368;55.002;-1.592;2022-09-09T14:03:20;3;2;
59546;PMS5003;45368;55.002;-1.592;2022-09-09T14:05:48;2;2;
59546;PMS5003;45368;55.002;-1.592;2022-09-09T14:08:21;4;2;
59546;PMS5003;45368;55.002;-1.592;2022-09-09T14:10:51;3;3;
59546;PMS5003;45368;55.002;-1.592;2022-09-09T14:13:18;2;2;
59546;PMS5003;45368;55.002;-1.592;2022-09-09T14:15:47;4;2;
59546;PMS5003;45368;55.002;-1.592;2022-09-09T14:18:15;2;2;
59546;PMS5003;45368;55.002;-1.592;2022-09-09T14:20:43;4;3;
59546;PMS5003;45368;55.002;-1.592;2022-09-09T14:23:11;7;3;
59546;PMS5003;45368;55.002;-1.592;2022-09-09T14:25:39;3;2;
59546;PMS5003;45368;55.002;-1.592;2022-09-09T14:28:08;1;0;
59546;PMS5003;45368;55.002;-1.592;2022-09-09T14:30:37;4;1;
59546;PMS5003;45368;55.002;-1.592;2022-09-09T14:33:05;3;0;
59546;PMS5003;45368;55.002;-1.592;2022-09-09T14:35:33;1;0;
59546;PMS5003;45368;55.002;-1.592;2022-09-09T14:38:00;3;2;
59546;PMS5003;45368;55.002;-1.592;2022-09-09T14:40:28;3;1;
59546;PMS5003;45368;55.002;-1.592;2022-09-09T14:42:56;1;1;
59546;PMS5003;45368;55.002;-1.592;2022-09-09T14:45:24;0;0;
59546;PMS5003;45368;55.002;-1.592;2022-09-09T14:47:51;1;1;
59546;PMS5003;45368;55.002;-1.592;2022-09-09T14:50:19;2;1;
59546;PMS5003;45368;55.002;-1.592;2022-09-09T14:52:46;5;1;
59546;PMS5003;45368;55.002;-1.592;2022-09-09T14:55:14;6;0;
59546;PMS5003;45368;55.002;-1.592;2022-09-09T14:57:41;1;1;
59546;PMS5003;45368;55.002;-1.592;2022-09-09T15:00:09;3;2;
59546;PMS5003;45368;55.002;-1.592;2022-09-09T15:02:37;1;1;
59546;PMS5003;45368;55.002;-1.592;2022-09-09T15:05:05;2;1;
59546;PMS5003;45368;55.002;-1.592;2022-09-09T15:07:33;1;1;
59546;PMS5003;45368;55.002;-1.592;2022-09-09T15:10:01;1;1;
59546;PMS5003;45368;55.002;-1.592;2022-09-09T15:12:29;0;0;
59546;PMS5003;45368;55.002;-1.592;2022-09-09T15:14:56;1;1;
59546;PMS5003;45368;55.002;-1.592;2022-09-09T15:18:07;0;0;
59546;PMS5003;45368;55.002;-1.592;2022-09-09T15:20:34;2;2;
59546;PMS5003;45368;55.002;-1.592;2022-09-09T15:23:02;0;0;
59546;PMS5003;45368;55.002;-1.592;2022-09-09T15:25:29;1;0;
59546;PMS5003;45368;55.002;-1.592;2022-09-09T15:27:57;2;2;
59546;PMS5003;45368;55.002;-1.592;2022-09-09T15:30:25;2;1;
59546;PMS5003;45368;55.002;-1.592;2022-09-09T15:32:52;2;1;
59546;PMS5003;45368;55.002;-1.592;2022-09-09T15:35:20;2;1;
59546;PMS5003;45368;55.002;-1.592;2022-09-09T15:37:47;0;0;
59546;PMS5003;45368;55.002;-1.592;2022-09-09T15:40:14;1;0;
59546;PMS5003;45368;55.002;-1.592;2022-09-09T15:42:42;1;0;
59546;PMS5003;45368;55.002;-1.592;2022-09-09T15:45:09;2;1;
59546;PMS5003;45368;55.002;-1.592;2022-09-09T15:47:36;1;1;
59546;PMS5003;45368;55.002;-1.592;2022-09-09T15:50:03;0;0;
59546;PMS5003;45368;55.002;-1.592;2022-09-09T15:52:31;2;0;
59546;PMS5003;45368;55.002;-1.592;2022-09-09T15:54:58;2;1;
59546;PMS5003;45368;55.002;-1.592;2022-09-09T15:57:26;1;0;
59546;PMS5003;45368;55.002;-1.592;2022-09-09T15:59:53;1;0;
59546;PMS5003;45368;55.002;-1.592;2022-09-09T16:02:21;0;0;
59546;PMS5003;45368;55.002;-1.592;2022-09-09T16:04:49;2;1;
59546;PMS5003;45368;55.002;-1.592;2022-09-09T16:07:16;2;1;
59546;PMS5003;45368;55.002;-1.592;2022-09-09T16:09:44;2;1;
59546;PMS5003;45368;55.002;-1.592;2022-09-09T16:12:12;0;0;
59546;PMS5003;45368;55.002;-1.592;2022-09-09T16:14:39;7;2;
59546;PMS5003;45368;55.002;-1.592;2022-09-09T16:17:06;0;0;
59546;PMS5003;45368;55.002;-1.592;2022-09-09T16:19:33;3;2;
59546;PMS5003;45368;55.002;-1.592;2022-09-09T16:22:01;3;2;
59546;PMS5003;45368;55.002;-1.592;2022-09-09T16:24:29;3;0;
59546;PMS5003;45368;55.002;-1.592;2022-09-09T16:26:57;2;1;
59546;PMS5003;45368;55.002;-1.592;2022-09-09T16:29:25;0;0;
59546;PMS5003;45368;55.002;-1.592;2022-09-09T16:31:52;3;1;
59546;PMS5003;45368;55.002;-1.592;2022-09-09T16:34:21;1;1;
59546;PMS5003;45368;55.002;-1.592;2022-09-09T16:36:48;1;1;
59546;PMS5003;45368;55.002;-1.592;2022-09-09T16:39:16;4;3;
59546;PMS5003;45368;55.002;-1.592;2022-09-09T16:41:45;2;1;
59546;PMS5003;45368;55.002;-1.592;2022-09-09T16:44:14;4;4;
59546;PMS5003;45368;55.002;-1.592;2022-09-09T16:46:43;3;1;
59546;PMS5003;45368;55.002;-1.592;2022-09-09T16:49:12;5;3;
59546;PMS5003;45368;55.002;-1.592;2022-09-09T16:51:41;2;1;
59546;PMS5003;45368;55.002;-1.592;2022-09-09T16:54:10;0;0;
59546;PMS5003;45368;55.002;-1.592;2022-09-09T16:56:38;1;1;
59546;PMS5003;45368;55.002;-1.592;2022-09-09T16:59:07;2;1;
59546;PMS5003;45368;55.002;-1.592;2022-09-09T17:01:37;2;1;